sensor_id;sensor_type;location;lat;lon;timestamp;P1;durP1;ratioP1;P2;durP2;ratioP2
47529;SDS011;33272;51.922;7.730;2024-01-15T00:01:44;3.57;;;2.60;;
47529;SDS011;33272;51.922;7.730;2024-01-15T00:04:11;5.20;;;2.80;;
47529;SDS011;33272;51.922;7.730;2024-01-15T00:06:37;3.73;;;2.90;;
47529;SDS011;33272;51.922;7.730;2024-01-15T00:09:04;5.40;;;3.20;;
47529;SDS011;33272;51.922;7.730;2024-01-15T00:11:31;4.97;;;2.70;;
47529;SDS011;33272;51.922;7.730;2024-01-15T00:13:58;4.77;;;2.60;;
47529;SDS011;33272;51.922;7.730;2024-01-15T00:16:25;3.33;;;2.77;;
47529;SDS011;33272;51.922;7.730;2024-01-15T00:18:53;3.40;;;2.50;;
47529;SDS011;33272;51.922;7.730;2024-01-15T00:21:19;4.13;;;2.70;;
47529;SDS011;33272;51.922;7.730;2024-01-15T00:23:46;5.23;;;2.90;;
47529;SDS011;33272;51.922;7.730;2024-01-15T00:26:12;3.97;;;3.00;;
47529;SDS011;33272;51.922;7.730;2024-01-15T00:28:39;4.37;;;2.90;;
47529;SDS011;33272;51.922;7.730;2024-01-15T00:31:05;4.63;;;2.83;;
47529;SDS011;33272;51.922;7.730;2024-01-15T00:33:32;4.50;;;2.90;;
47529;SDS011;33272;51.922;7.730;2024-01-15T00:36:00;3.53;;;2.47;;
47529;SDS011;33272;51.922;7.730;2024-01-15T00:38:27;3.93;;;3.03;;
47529;SDS011;33272;51.922;7.730;2024-01-15T00:40:54;3.03;;;2.60;;
47529;SDS011;33272;51.922;7.730;2024-01-15T00:43:20;3.90;;;2.60;;
47529;SDS011;33272;51.922;7.730;2024-01-15T00:45:47;3.80;;;2.50;;
47529;SDS011;33272;51.922;7.730;2024-01-15T00:48:13;3.20;;;2.90;;
47529;SDS011;33272;51.922;7.730;2024-01-15T00:50:40;2.80;;;2.50;;
47529;SDS011;33272;51.922;7.730;2024-01-15T00:53:08;4.57;;;2.70;;
47529;SDS011;33272;51.922;7.730;2024-01-15T00:55:34;2.97;;;2.40;;
47529;SDS011;33272;51.922;7.730;2024-01-15T00:58:02;4.33;;;2.70;;
47529;SDS011;33272;51.922;7.730;2024-01-15T01:00:29;2.63;;;2.00;;
47529;SDS011;33272;51.922;7.730;2024-01-15T01:02:55;3.43;;;2.37;;
47529;SDS011;33272;51.922;7.730;2024-01-15T01:05:22;4.30;;;2.80;;
47529;SDS011;33272;51.922;7.730;2024-01-15T01:07:48;3.37;;;2.40;;
47529;SDS011;33272;51.922;7.730;2024-01-15T01:10:16;3.00;;;2.13;;
47529;SDS011;33272;51.922;7.730;2024-01-15T01:12:43;3.27;;;2.57;;
47529;SDS011;33272;51.922;7.730;2024-01-15T01:15:09;4.13;;;2.60;;
47529;SDS011;33272;51.922;7.730;2024-01-15T01:17:36;3.37;;;2.23;;
47529;SDS011;33272;51.922;7.730;2024-01-15T01:20:03;2.73;;;2.47;;
47529;SDS011;33272;51.922;7.730;2024-01-15T01:22:31;3.07;;;2.33;;
47529;SDS011;33272;51.922;7.730;2024-01-15T01:24:58;3.27;;;2.23;;
47529;SDS011;33272;51.922;7.730;2024-01-15T01:27:25;3.40;;;2.43;;
47529;SDS011;33272;51.922;7.730;2024-01-15T01:29:52;3.30;;;2.50;;
47529;SDS011;33272;51.922;7.730;2024-01-15T01:32:19;3.83;;;2.43;;
47529;SDS011;33272;51.922;7.730;2024-01-15T01:34:45;3.87;;;2.40;;
47529;SDS011;33272;51.922;7.730;2024-01-15T01:37:12;3.50;;;2.30;;
47529;SDS011;33272;51.922;7.730;2024-01-15T01:39:39;3.33;;;2.47;;
47529;SDS011;33272;51.922;7.730;2024-01-15T01:42:05;4.30;;;2.30;;
47529;SDS011;33272;51.922;7.730;2024-01-15T01:44:33;3.17;;;2.37;;
47529;SDS011;33272;51.922;7.730;2024-01-15T01:47:00;4.43;;;2.40;;
47529;SDS011;33272;51.922;7.730;2024-01-15T01:49:28;3.20;;;2.23;;
47529;SDS011;33272;51.922;7.730;2024-01-15T01:51:55;3.73;;;2.20;;
47529;SDS011;33272;51.922;7.730;2024-01-15T01:54:23;3.37;;;2.23;;
47529;SDS011;33272;51.922;7.730;2024-01-15T01:56:51;2.77;;;2.30;;
47529;SDS011;33272;51.922;7.730;2024-01-15T01:59:18;4.67;;;2.30;;
47529;SDS011;33272;51.922;7.730;2024-01-15T02:01:46;3.20;;;2.23;;
47529;SDS011;33272;51.922;7.730;2024-01-15T02:04:14;3.80;;;2.43;;
47529;SDS011;33272;51.922;7.730;2024-01-15T02:06:42;3.73;;;2.33;;
47529;SDS011;33272;51.922;7.730;2024-01-15T02:09:08;2.23;;;2.03;;
47529;SDS011;33272;51.922;7.730;2024-01-15T02:11:35;3.23;;;2.60;;
47529;SDS011;33272;51.922;7.730;2024-01-15T02:14:02;3.10;;;2.40;;
47529;SDS011;33272;51.922;7.730;2024-01-15T02:16:29;5.27;;;2.40;;
47529;SDS011;33272;51.922;7.730;2024-01-15T02:18:57;3.07;;;2.43;;
47529;SDS011;33272;51.922;7.730;2024-01-15T02:21:23;2.73;;;2.10;;
47529;SDS011;33272;51.922;7.730;2024-01-15T02:23:52;2.67;;;2.00;;
47529;SDS011;33272;51.922;7.730;2024-01-15T02:26:19;3.43;;;2.20;;
47529;SDS011;33272;51.922;7.730;2024-01-15T02:28:45;2.77;;;2.20;;
47529;SDS011;33272;51.922;7.730;2024-01-15T02:31:12;3.17;;;2.30;;
47529;SDS011;33272;51.922;7.730;2024-01-15T02:33:38;4.50;;;2.77;;
47529;SDS011;33272;51.922;7.730;2024-01-15T02:36:07;2.43;;;1.90;;
47529;SDS011;33272;51.922;7.730;2024-01-15T02:38:34;2.43;;;2.10;;
47529;SDS011;33272;51.922;7.730;2024-01-15T02:41:02;2.63;;;2.13;;
47529;SDS011;33272;51.922;7.730;2024-01-15T02:43:28;2.83;;;2.17;;
47529;SDS011;33272;51.922;7.730;2024-01-15T02:45:55;3.80;;;2.10;;
47529;SDS011;33272;51.922;7.730;2024-01-15T02:48:21;2.77;;;2.13;;
47529;SDS011;33272;51.922;7.730;2024-01-15T02:50:48;3.30;;;1.97;;
47529;SDS011;33272;51.922;7.730;2024-01-15T02:53:14;3.00;;;2.03;;
47529;SDS011;33272;51.922;7.730;2024-01-15T02:55:41;2.33;;;1.93;;
47529;SDS011;33272;51.922;7.730;2024-01-15T02:58:08;2.33;;;2.07;;
47529;SDS011;33272;51.922;7.730;2024-01-15T03:00:35;3.43;;;2.40;;
47529;SDS011;33272;51.922;7.730;2024-01-15T03:03:02;3.00;;;2.10;;
47529;SDS011;33272;51.922;7.730;2024-01-15T03:05:28;2.50;;;1.80;;
47529;SDS011;33272;51.922;7.730;2024-01-15T03:07:55;3.53;;;2.10;;
47529;SDS011;33272;51.922;7.730;2024-01-15T03:10:21;3.10;;;2.40;;
47529;SDS011;33272;51.922;7.730;2024-01-15T03:12:48;2.47;;;1.93;;
47529;SDS011;33272;51.922;7.730;2024-01-15T03:15:15;2.27;;;2.00;;
47529;SDS011;33272;51.922;7.730;2024-01-15T03:17:43;2.17;;;1.97;;
47529;SDS011;33272;51.922;7.730;2024-01-15T03:20:10;2.50;;;2.23;;
47529;SDS011;33272;51.922;7.730;2024-01-15T03:22:37;2.63;;;2.00;;
47529;SDS011;33272;51.922;7.730;2024-01-15T03:25:04;3.73;;;2.10;;
47529;SDS011;33272;51.922;7.730;2024-01-15T03:27:31;3.10;;;2.03;;
47529;SDS011;33272;51.922;7.730;2024-01-15T03:29:57;2.27;;;2.00;;
47529;SDS011;33272;51.922;7.730;2024-01-15T03:32:25;2.27;;;1.73;;
47529;SDS011;33272;51.922;7.730;2024-01-15T03:34:52;2.13;;;1.53;;
47529;SDS011;33272;51.922;7.730;2024-01-15T03:37:18;2.70;;;2.00;;
47529;SDS011;33272;51.922;7.730;2024-01-15T03:39:45;2.97;;;2.00;;
47529;SDS011;33272;51.922;7.730;2024-01-15T03:42:12;2.43;;;1.90;;
47529;SDS011;33272;51.922;7.730;2024-01-15T03:44:39;2.57;;;2.00;;
47529;SDS011;33272;51.922;7.730;2024-01-15T03:47:06;2.33;;;1.80;;
47529;SDS011;33272;51.922;7.730;2024-01-15T03:49:33;2.43;;;2.20;;
47529;SDS011;33272;51.922;7.730;2024-01-15T03:52:00;2.53;;;1.90;;
47529;SDS011;33272;51.922;7.730;2024-01-15T03:54:26;3.13;;;1.90;;
47529;SDS011;33272;51.922;7.730;2024-01-15T03:56:53;3.13;;;2.17;;
47529;SDS011;33272;51.922;7.730;2024-01-15T03:59:19;2.90;;;1.90;;
47529;SDS011;33272;51.922;7.730;2024-01-15T04:01:49;2.50;;;2.10;;
47529;SDS011;33272;51.922;7.730;2024-01-15T04:04:16;2.00;;;1.63;;
47529;SDS011;33272;51.922;7.730;2024-01-15T04:06:44;2.23;;;1.87;;
47529;SDS011;33272;51.922;7.730;2024-01-15T04:09:11;2.70;;;1.93;;
47529;SDS011;33272;51.922;7.730;2024-01-15T04:11:38;2.23;;;1.70;;
47529;SDS011;33272;51.922;7.730;2024-01-15T04:14:04;2.23;;;1.73;;
47529;SDS011;33272;51.922;7.730;2024-01-15T04:16:31;2.70;;;1.90;;
47529;SDS011;33272;51.922;7.730;2024-01-15T04:18:57;1.90;;;1.60;;
47529;SDS011;33272;51.922;7.730;2024-01-15T04:21:24;1.73;;;1.60;;
47529;SDS011;33272;51.922;7.730;2024-01-15T04:23:52;1.87;;;1.73;;
47529;SDS011;33272;51.922;7.730;2024-01-15T04:26:18;2.23;;;2.00;;
47529;SDS011;33272;51.922;7.730;2024-01-15T04:28:45;3.80;;;2.10;;
47529;SDS011;33272;51.922;7.730;2024-01-15T04:31:20;2.83;;;2.03;;
47529;SDS011;33272;51.922;7.730;2024-01-15T04:33:47;2.33;;;1.60;;
47529;SDS011;33272;51.922;7.730;2024-01-15T04:36:13;2.10;;;1.60;;
47529;SDS011;33272;51.922;7.730;2024-01-15T04:38:40;1.77;;;1.57;;
47529;SDS011;33272;51.922;7.730;2024-01-15T04:41:10;1.90;;;1.70;;
47529;SDS011;33272;51.922;7.730;2024-01-15T04:43:37;2.33;;;1.77;;
47529;SDS011;33272;51.922;7.730;2024-01-15T04:46:05;2.17;;;1.70;;
47529;SDS011;33272;51.922;7.730;2024-01-15T04:48:31;1.90;;;1.70;;
47529;SDS011;33272;51.922;7.730;2024-01-15T04:50:58;2.03;;;1.60;;
47529;SDS011;33272;51.922;7.730;2024-01-15T04:53:24;2.33;;;1.90;;
47529;SDS011;33272;51.922;7.730;2024-01-15T04:55:51;2.50;;;2.27;;
47529;SDS011;33272;51.922;7.730;2024-01-15T04:58:19;2.53;;;1.90;;
47529;SDS011;33272;51.922;7.730;2024-01-15T05:00:45;2.10;;;1.87;;
47529;SDS011;33272;51.922;7.730;2024-01-15T05:03:12;1.70;;;1.60;;
47529;SDS011;33272;51.922;7.730;2024-01-15T05:05:38;1.97;;;1.60;;
47529;SDS011;33272;51.922;7.730;2024-01-15T05:08:05;2.23;;;1.87;;
47529;SDS011;33272;51.922;7.730;2024-01-15T05:10:32;2.97;;;1.57;;
47529;SDS011;33272;51.922;7.730;2024-01-15T05:12:58;2.93;;;1.73;;
47529;SDS011;33272;51.922;7.730;2024-01-15T05:15:26;2.77;;;1.97;;
47529;SDS011;33272;51.922;7.730;2024-01-15T05:17:52;2.30;;;1.87;;
47529;SDS011;33272;51.922;7.730;2024-01-15T05:20:19;1.97;;;1.50;;
47529;SDS011;33272;51.922;7.730;2024-01-15T05:22:45;2.20;;;1.57;;
47529;SDS011;33272;51.922;7.730;2024-01-15T05:25:12;2.03;;;1.50;;
47529;SDS011;33272;51.922;7.730;2024-01-15T05:27:39;1.90;;;1.70;;
47529;SDS011;33272;51.922;7.730;2024-01-15T05:30:05;1.70;;;1.43;;
47529;SDS011;33272;51.922;7.730;2024-01-15T05:32:34;1.67;;;1.53;;
47529;SDS011;33272;51.922;7.730;2024-01-15T05:35:00;2.40;;;1.27;;
47529;SDS011;33272;51.922;7.730;2024-01-15T05:37:27;1.40;;;1.30;;
47529;SDS011;33272;51.922;7.730;2024-01-15T05:39:53;1.73;;;1.43;;
47529;SDS011;33272;51.922;7.730;2024-01-15T05:42:20;3.10;;;1.83;;
47529;SDS011;33272;51.922;7.730;2024-01-15T05:44:46;1.67;;;1.50;;
47529;SDS011;33272;51.922;7.730;2024-01-15T05:47:13;1.73;;;1.53;;
47529;SDS011;33272;51.922;7.730;2024-01-15T05:49:40;2.33;;;1.77;;
47529;SDS011;33272;51.922;7.730;2024-01-15T05:52:07;1.40;;;1.30;;
47529;SDS011;33272;51.922;7.730;2024-01-15T05:54:33;1.70;;;1.60;;
47529;SDS011;33272;51.922;7.730;2024-01-15T05:57:00;1.70;;;1.57;;
47529;SDS011;33272;51.922;7.730;2024-01-15T05:59:26;2.07;;;1.47;;
47529;SDS011;33272;51.922;7.730;2024-01-15T06:01:56;1.33;;;1.23;;
47529;SDS011;33272;51.922;7.730;2024-01-15T06:04:23;1.80;;;1.60;;
47529;SDS011;33272;51.922;7.730;2024-01-15T06:06:51;1.47;;;1.37;;
47529;SDS011;33272;51.922;7.730;2024-01-15T06:09:17;1.77;;;1.37;;
47529;SDS011;33272;51.922;7.730;2024-01-15T06:11:44;1.80;;;1.60;;
47529;SDS011;33272;51.922;7.730;2024-01-15T06:14:10;1.63;;;1.40;;
47529;SDS011;33272;51.922;7.730;2024-01-15T06:16:37;2.30;;;1.63;;
47529;SDS011;33272;51.922;7.730;2024-01-15T06:19:03;1.73;;;1.40;;
47529;SDS011;33272;51.922;7.730;2024-01-15T06:21:30;1.63;;;1.30;;
47529;SDS011;33272;51.922;7.730;2024-01-15T06:23:58;1.60;;;1.40;;
47529;SDS011;33272;51.922;7.730;2024-01-15T06:26:24;2.13;;;1.40;;
47529;SDS011;33272;51.922;7.730;2024-01-15T06:28:51;1.80;;;1.33;;
47529;SDS011;33272;51.922;7.730;2024-01-15T06:31:17;2.20;;;1.47;;
47529;SDS011;33272;51.922;7.730;2024-01-15T06:33:44;1.90;;;1.50;;
47529;SDS011;33272;51.922;7.730;2024-01-15T06:36:13;1.40;;;1.13;;
47529;SDS011;33272;51.922;7.730;2024-01-15T06:38:41;1.50;;;1.30;;
47529;SDS011;33272;51.922;7.730;2024-01-15T06:41:10;1.70;;;1.47;;
47529;SDS011;33272;51.922;7.730;2024-01-15T06:43:36;1.37;;;1.17;;
47529;SDS011;33272;51.922;7.730;2024-01-15T06:46:03;1.40;;;1.30;;
47529;SDS011;33272;51.922;7.730;2024-01-15T06:48:29;2.57;;;1.20;;
47529;SDS011;33272;51.922;7.730;2024-01-15T06:50:56;1.73;;;1.33;;
47529;SDS011;33272;51.922;7.730;2024-01-15T06:53:22;1.83;;;1.43;;
47529;SDS011;33272;51.922;7.730;2024-01-15T06:55:49;2.20;;;1.53;;
47529;SDS011;33272;51.922;7.730;2024-01-15T06:58:17;1.10;;;1.00;;
47529;SDS011;33272;51.922;7.730;2024-01-15T07:00:44;1.40;;;1.30;;
47529;SDS011;33272;51.922;7.730;2024-01-15T07:03:10;1.33;;;1.13;;
47529;SDS011;33272;51.922;7.730;2024-01-15T07:05:37;1.73;;;1.20;;
47529;SDS011;33272;51.922;7.730;2024-01-15T07:08:04;1.93;;;1.33;;
47529;SDS011;33272;51.922;7.730;2024-01-15T07:10:30;1.70;;;1.37;;
47529;SDS011;33272;51.922;7.730;2024-01-15T07:12:57;2.27;;;1.33;;
47529;SDS011;33272;51.922;7.730;2024-01-15T07:15:25;1.67;;;1.20;;
47529;SDS011;33272;51.922;7.730;2024-01-15T07:17:51;1.43;;;1.33;;
47529;SDS011;33272;51.922;7.730;2024-01-15T07:20:18;1.50;;;1.23;;
47529;SDS011;33272;51.922;7.730;2024-01-15T07:22:45;3.37;;;1.40;;
47529;SDS011;33272;51.922;7.730;2024-01-15T07:25:12;1.23;;;1.07;;
47529;SDS011;33272;51.922;7.730;2024-01-15T07:27:38;1.37;;;1.10;;
47529;SDS011;33272;51.922;7.730;2024-01-15T07:30:08;1.70;;;1.50;;
47529;SDS011;33272;51.922;7.730;2024-01-15T07:32:36;2.00;;;1.37;;
47529;SDS011;33272;51.922;7.730;2024-01-15T07:35:02;2.03;;;1.30;;
47529;SDS011;33272;51.922;7.730;2024-01-15T07:37:30;1.70;;;1.60;;
47529;SDS011;33272;51.922;7.730;2024-01-15T07:39:56;1.40;;;1.30;;
47529;SDS011;33272;51.922;7.730;2024-01-15T07:42:23;5.17;;;2.07;;
47529;SDS011;33272;51.922;7.730;2024-01-15T07:44:49;1.33;;;1.23;;
47529;SDS011;33272;51.922;7.730;2024-01-15T07:47:16;2.73;;;1.37;;
47529;SDS011;33272;51.922;7.730;2024-01-15T07:49:44;1.70;;;1.00;;
47529;SDS011;33272;51.922;7.730;2024-01-15T07:52:11;1.60;;;1.10;;
47529;SDS011;33272;51.922;7.730;2024-01-15T07:54:38;1.63;;;1.13;;
47529;SDS011;33272;51.922;7.730;2024-01-15T07:57:04;1.23;;;1.13;;
47529;SDS011;33272;51.922;7.730;2024-01-15T07:59:31;1.53;;;1.30;;
47529;SDS011;33272;51.922;7.730;2024-01-15T08:01:58;2.03;;;1.30;;
47529;SDS011;33272;51.922;7.730;2024-01-15T08:04:25;2.73;;;1.20;;
47529;SDS011;33272;51.922;7.730;2024-01-15T08:06:53;1.30;;;1.00;;
47529;SDS011;33272;51.922;7.730;2024-01-15T08:09:19;1.80;;;1.30;;
47529;SDS011;33272;51.922;7.730;2024-01-15T08:11:46;2.13;;;1.50;;
47529;SDS011;33272;51.922;7.730;2024-01-15T08:14:14;1.20;;;1.07;;
47529;SDS011;33272;51.922;7.730;2024-01-15T08:16:41;1.40;;;1.20;;
47529;SDS011;33272;51.922;7.730;2024-01-15T08:19:08;1.20;;;1.10;;
47529;SDS011;33272;51.922;7.730;2024-01-15T08:21:35;1.40;;;1.10;;
47529;SDS011;33272;51.922;7.730;2024-01-15T08:24:03;1.10;;;1.00;;
47529;SDS011;33272;51.922;7.730;2024-01-15T08:26:30;1.10;;;1.00;;
47529;SDS011;33272;51.922;7.730;2024-01-15T08:28:57;1.57;;;1.37;;
47529;SDS011;33272;51.922;7.730;2024-01-15T08:31:23;1.63;;;1.40;;
47529;SDS011;33272;51.922;7.730;2024-01-15T08:33:50;1.10;;;1.00;;
47529;SDS011;33272;51.922;7.730;2024-01-15T08:36:17;1.40;;;0.93;;
47529;SDS011;33272;51.922;7.730;2024-01-15T08:38:44;1.50;;;1.10;;
47529;SDS011;33272;51.922;7.730;2024-01-15T08:41:12;1.10;;;1.00;;
47529;SDS011;33272;51.922;7.730;2024-01-15T08:43:39;1.30;;;1.20;;
47529;SDS011;33272;51.922;7.730;2024-01-15T08:46:05;1.90;;;1.33;;
47529;SDS011;33272;51.922;7.730;2024-01-15T08:48:32;1.30;;;1.20;;
47529;SDS011;33272;51.922;7.730;2024-01-15T08:50:58;1.70;;;1.23;;
47529;SDS011;33272;51.922;7.730;2024-01-15T08:53:25;1.10;;;1.00;;
47529;SDS011;33272;51.922;7.730;2024-01-15T08:55:52;1.40;;;1.30;;
47529;SDS011;33272;51.922;7.730;2024-01-15T08:58:20;1.60;;;1.20;;
47529;SDS011;33272;51.922;7.730;2024-01-15T09:00:46;2.03;;;1.20;;
47529;SDS011;33272;51.922;7.730;2024-01-15T09:03:13;2.07;;;1.20;;
47529;SDS011;33272;51.922;7.730;2024-01-15T09:05:39;2.27;;;1.17;;
47529;SDS011;33272;51.922;7.730;2024-01-15T09:08:06;1.97;;;1.50;;
47529;SDS011;33272;51.922;7.730;2024-01-15T09:10:32;2.73;;;1.40;;
47529;SDS011;33272;51.922;7.730;2024-01-15T09:12:59;3.73;;;2.03;;
47529;SDS011;33272;51.922;7.730;2024-01-15T09:15:27;2.00;;;1.47;;
47529;SDS011;33272;51.922;7.730;2024-01-15T09:17:54;2.67;;;1.60;;
47529;SDS011;33272;51.922;7.730;2024-01-15T09:20:22;2.13;;;1.23;;
47529;SDS011;33272;51.922;7.730;2024-01-15T09:22:49;4.10;;;1.40;;
47529;SDS011;33272;51.922;7.730;2024-01-15T09:25:15;3.93;;;1.70;;
47529;SDS011;33272;51.922;7.730;2024-01-15T09:27:42;3.87;;;1.60;;
47529;SDS011;33272;51.922;7.730;2024-01-15T09:30:09;2.43;;;1.50;;
47529;SDS011;33272;51.922;7.730;2024-01-15T09:32:37;2.40;;;1.40;;
47529;SDS011;33272;51.922;7.730;2024-01-15T09:35:04;3.03;;;1.40;;
47529;SDS011;33272;51.922;7.730;2024-01-15T09:37:32;4.77;;;2.10;;
47529;SDS011;33272;51.922;7.730;2024-01-15T09:39:58;2.63;;;1.70;;
47529;SDS011;33272;51.922;7.730;2024-01-15T09:42:25;4.33;;;1.40;;
47529;SDS011;33272;51.922;7.730;2024-01-15T09:44:52;2.63;;;1.70;;
47529;SDS011;33272;51.922;7.730;2024-01-15T09:47:19;3.67;;;1.80;;
47529;SDS011;33272;51.922;7.730;2024-01-15T09:49:48;3.93;;;1.93;;
47529;SDS011;33272;51.922;7.730;2024-01-15T09:52:14;3.07;;;1.70;;
47529;SDS011;33272;51.922;7.730;2024-01-15T09:54:44;3.37;;;1.50;;
47529;SDS011;33272;51.922;7.730;2024-01-15T09:57:12;2.67;;;1.63;;
47529;SDS011;33272;51.922;7.730;2024-01-15T09:59:38;2.97;;;1.73;;
47529;SDS011;33272;51.922;7.730;2024-01-15T10:02:08;4.50;;;2.00;;
47529;SDS011;33272;51.922;7.730;2024-01-15T10:04:40;5.70;;;2.20;;
47529;SDS011;33272;51.922;7.730;2024-01-15T10:07:09;2.67;;;1.60;;
47529;SDS011;33272;51.922;7.730;2024-01-15T10:09:41;5.93;;;2.00;;
47529;SDS011;33272;51.922;7.730;2024-01-15T10:12:07;3.93;;;1.87;;
47529;SDS011;33272;51.922;7.730;2024-01-15T10:14:35;2.70;;;1.83;;
47529;SDS011;33272;51.922;7.730;2024-01-15T10:17:06;5.27;;;1.77;;
47529;SDS011;33272;51.922;7.730;2024-01-15T10:19:38;2.13;;;1.70;;
47529;SDS011;33272;51.922;7.730;2024-01-15T10:22:06;2.90;;;1.67;;
47529;SDS011;33272;51.922;7.730;2024-01-15T10:24:34;4.03;;;2.07;;
47529;SDS011;33272;51.922;7.730;2024-01-15T10:27:04;2.73;;;1.80;;
47529;SDS011;33272;51.922;7.730;2024-01-15T10:29:32;3.50;;;1.70;;
47529;SDS011;33272;51.922;7.730;2024-01-15T10:31:58;4.27;;;1.87;;
47529;SDS011;33272;51.922;7.730;2024-01-15T10:34:26;4.47;;;1.83;;
47529;SDS011;33272;51.922;7.730;2024-01-15T10:36:52;3.50;;;2.27;;
47529;SDS011;33272;51.922;7.730;2024-01-15T10:39:21;2.80;;;1.60;;
47529;SDS011;33272;51.922;7.730;2024-01-15T10:41:49;3.10;;;1.57;;
47529;SDS011;33272;51.922;7.730;2024-01-15T10:44:16;2.77;;;1.80;;
47529;SDS011;33272;51.922;7.730;2024-01-15T10:46:42;4.03;;;1.60;;
47529;SDS011;33272;51.922;7.730;2024-01-15T10:49:12;4.03;;;1.90;;
47529;SDS011;33272;51.922;7.730;2024-01-15T10:51:38;2.53;;;1.70;;
47529;SDS011;33272;51.922;7.730;2024-01-15T10:54:06;3.43;;;2.10;;
47529;SDS011;33272;51.922;7.730;2024-01-15T10:56:36;2.83;;;1.53;;
47529;SDS011;33272;51.922;7.730;2024-01-15T10:59:05;6.67;;;2.53;;
47529;SDS011;33272;51.922;7.730;2024-01-15T11:01:34;4.90;;;1.90;;
47529;SDS011;33272;51.922;7.730;2024-01-15T11:04:02;2.97;;;1.87;;
47529;SDS011;33272;51.922;7.730;2024-01-15T11:06:41;4.50;;;1.97;;
47529;SDS011;33272;51.922;7.730;2024-01-15T11:09:08;5.80;;;2.30;;
47529;SDS011;33272;51.922;7.730;2024-01-15T11:11:35;4.80;;;2.30;;
47529;SDS011;33272;51.922;7.730;2024-01-15T11:14:02;6.13;;;2.03;;
47529;SDS011;33272;51.922;7.730;2024-01-15T11:16:52;4.20;;;1.83;;
47529;SDS011;33272;51.922;7.730;2024-01-15T11:19:20;3.70;;;1.60;;
47529;SDS011;33272;51.922;7.730;2024-01-15T11:21:46;3.20;;;1.80;;
47529;SDS011;33272;51.922;7.730;2024-01-15T11:24:32;4.70;;;1.83;;
47529;SDS011;33272;51.922;7.730;2024-01-15T11:27:00;4.50;;;2.00;;
47529;SDS011;33272;51.922;7.730;2024-01-15T11:29:31;5.97;;;1.90;;
47529;SDS011;33272;51.922;7.730;2024-01-15T11:32:01;2.73;;;1.90;;
47529;SDS011;33272;51.922;7.730;2024-01-15T11:37:16;3.03;;;1.70;;
47529;SDS011;33272;51.922;7.730;2024-01-15T11:39:43;3.53;;;1.70;;
47529;SDS011;33272;51.922;7.730;2024-01-15T11:42:10;2.93;;;2.23;;
47529;SDS011;33272;51.922;7.730;2024-01-15T11:44:37;3.70;;;1.70;;
47529;SDS011;33272;51.922;7.730;2024-01-15T11:47:06;4.60;;;1.87;;
47529;SDS011;33272;51.922;7.730;2024-01-15T11:49:42;3.17;;;1.80;;
47529;SDS011;33272;51.922;7.730;2024-01-15T11:52:24;2.57;;;1.57;;
47529;SDS011;33272;51.922;7.730;2024-01-15T11:54:55;1.80;;;1.50;;
47529;SDS011;33272;51.922;7.730;2024-01-15T11:57:32;2.90;;;1.70;;
47529;SDS011;33272;51.922;7.730;2024-01-15T12:00:05;4.17;;;1.60;;
47529;SDS011;33272;51.922;7.730;2024-01-15T12:02:35;2.17;;;1.47;;
47529;SDS011;33272;51.922;7.730;2024-01-15T12:05:02;2.23;;;1.63;;
47529;SDS011;33272;51.922;7.730;2024-01-15T12:07:29;4.50;;;1.63;;
47529;SDS011;33272;51.922;7.730;2024-01-15T12:09:56;1.83;;;1.37;;
47529;SDS011;33272;51.922;7.730;2024-01-15T12:12:24;2.60;;;1.50;;
47529;SDS011;33272;51.922;7.730;2024-01-15T12:14:55;3.20;;;1.73;;
47529;SDS011;33272;51.922;7.730;2024-01-15T12:17:21;3.30;;;1.70;;
47529;SDS011;33272;51.922;7.730;2024-01-15T12:19:49;2.70;;;1.37;;
47529;SDS011;33272;51.922;7.730;2024-01-15T12:22:16;2.03;;;1.40;;
47529;SDS011;33272;51.922;7.730;2024-01-15T12:24:43;4.83;;;1.77;;
47529;SDS011;33272;51.922;7.730;2024-01-15T12:27:09;3.23;;;1.50;;
47529;SDS011;33272;51.922;7.730;2024-01-15T12:29:37;2.70;;;1.77;;
47529;SDS011;33272;51.922;7.730;2024-01-15T12:32:04;2.03;;;1.23;;
47529;SDS011;33272;51.922;7.730;2024-01-15T12:34:32;2.40;;;1.47;;
47529;SDS011;33272;51.922;7.730;2024-01-15T12:37:00;3.03;;;1.30;;
47529;SDS011;33272;51.922;7.730;2024-01-15T12:39:26;2.53;;;1.37;;
47529;SDS011;33272;51.922;7.730;2024-01-15T12:41:53;2.87;;;1.77;;
47529;SDS011;33272;51.922;7.730;2024-01-15T12:44:19;3.13;;;1.50;;
47529;SDS011;33272;51.922;7.730;2024-01-15T12:46:46;2.57;;;1.47;;
47529;SDS011;33272;51.922;7.730;2024-01-15T12:49:12;2.60;;;1.63;;
47529;SDS011;33272;51.922;7.730;2024-01-15T12:51:39;2.00;;;1.40;;
47529;SDS011;33272;51.922;7.730;2024-01-15T12:54:07;1.80;;;1.27;;
47529;SDS011;33272;51.922;7.730;2024-01-15T12:56:34;2.97;;;1.30;;
47529;SDS011;33272;51.922;7.730;2024-01-15T12:59:00;2.17;;;1.40;;
47529;SDS011;33272;51.922;7.730;2024-01-15T13:01:26;2.70;;;1.60;;
47529;SDS011;33272;51.922;7.730;2024-01-15T13:03:53;1.80;;;1.30;;
47529;SDS011;33272;51.922;7.730;2024-01-15T13:06:19;2.70;;;1.30;;
47529;SDS011;33272;51.922;7.730;2024-01-15T13:08:46;2.47;;;1.60;;
47529;SDS011;33272;51.922;7.730;2024-01-15T13:11:14;1.73;;;1.40;;
47529;SDS011;33272;51.922;7.730;2024-01-15T13:13:41;2.30;;;1.20;;
47529;SDS011;33272;51.922;7.730;2024-01-15T13:16:07;3.20;;;1.40;;
47529;SDS011;33272;51.922;7.730;2024-01-15T13:18:34;3.60;;;1.53;;
47529;SDS011;33272;51.922;7.730;2024-01-15T13:21:01;2.10;;;1.37;;
47529;SDS011;33272;51.922;7.730;2024-01-15T13:23:29;3.30;;;1.47;;
47529;SDS011;33272;51.922;7.730;2024-01-15T13:25:56;3.60;;;1.77;;
47529;SDS011;33272;51.922;7.730;2024-01-15T13:28:24;2.57;;;1.23;;
47529;SDS011;33272;51.922;7.730;2024-01-15T13:30:51;2.03;;;1.30;;
47529;SDS011;33272;51.922;7.730;2024-01-15T13:33:17;2.20;;;1.13;;
47529;SDS011;33272;51.922;7.730;2024-01-15T13:35:44;2.50;;;1.13;;
47529;SDS011;33272;51.922;7.730;2024-01-15T13:38:14;1.97;;;1.20;;
47529;SDS011;33272;51.922;7.730;2024-01-15T13:40:41;2.57;;;1.37;;
47529;SDS011;33272;51.922;7.730;2024-01-15T13:43:10;1.47;;;1.17;;
47529;SDS011;33272;51.922;7.730;2024-01-15T13:45:37;3.27;;;1.10;;
47529;SDS011;33272;51.922;7.730;2024-01-15T13:48:04;1.63;;;1.10;;
47529;SDS011;33272;51.922;7.730;2024-01-15T13:50:31;2.83;;;1.13;;
47529;SDS011;33272;51.922;7.730;2024-01-15T13:52:58;2.03;;;1.10;;
47529;SDS011;33272;51.922;7.730;2024-01-15T13:55:24;2.30;;;1.50;;
47529;SDS011;33272;51.922;7.730;2024-01-15T13:57:51;2.90;;;1.17;;
47529;SDS011;33272;51.922;7.730;2024-01-15T14:00:17;3.17;;;1.70;;
47529;SDS011;33272;51.922;7.730;2024-01-15T14:02:46;2.70;;;1.10;;
47529;SDS011;33272;51.922;7.730;2024-01-15T14:05:12;2.77;;;1.40;;
47529;SDS011;33272;51.922;7.730;2024-01-15T14:07:39;1.90;;;1.37;;
47529;SDS011;33272;51.922;7.730;2024-01-15T14:10:06;1.77;;;1.13;;
47529;SDS011;33272;51.922;7.730;2024-01-15T14:12:34;1.63;;;1.33;;
47529;SDS011;33272;51.922;7.730;2024-01-15T14:15:01;1.60;;;1.20;;
47529;SDS011;33272;51.922;7.730;2024-01-15T14:17:28;2.50;;;1.10;;
47529;SDS011;33272;51.922;7.730;2024-01-15T14:19:56;2.20;;;1.43;;
47529;SDS011;33272;51.922;7.730;2024-01-15T14:22:23;2.27;;;1.33;;
47529;SDS011;33272;51.922;7.730;2024-01-15T14:24:49;3.37;;;1.20;;
47529;SDS011;33272;51.922;7.730;2024-01-15T14:27:16;1.27;;;0.90;;
47529;SDS011;33272;51.922;7.730;2024-01-15T14:29:42;3.27;;;1.20;;
47529;SDS011;33272;51.922;7.730;2024-01-15T14:32:10;1.90;;;1.30;;
47529;SDS011;33272;51.922;7.730;2024-01-15T14:34:37;1.57;;;1.10;;
47529;SDS011;33272;51.922;7.730;2024-01-15T14:37:05;1.57;;;1.10;;
47529;SDS011;33272;51.922;7.730;2024-01-15T14:39:32;3.80;;;1.30;;
47529;SDS011;33272;51.922;7.730;2024-01-15T14:41:59;2.70;;;1.43;;
47529;SDS011;33272;51.922;7.730;2024-01-15T14:44:25;1.50;;;1.10;;
47529;SDS011;33272;51.922;7.730;2024-01-15T14:46:53;1.43;;;1.03;;
47529;SDS011;33272;51.922;7.730;2024-01-15T14:49:20;1.63;;;1.20;;
47529;SDS011;33272;51.922;7.730;2024-01-15T14:51:47;0.90;;;0.90;;